sensor_id;sensor_type;location;lat;lon;timestamp;pressure;altitude;pressure_sealevel;temperature;humidity
36354;BME280;22383;51.114;13.666;2024-01-07T00:00:09;66922.84;;;-2.52;100.00
36354;BME280;22383;51.114;13.666;2024-01-07T00:02:36;66918.41;;;-2.49;100.00
36354;BME280;22383;51.114;13.666;2024-01-07T00:05:04;66915.53;;;-2.59;100.00
36354;BME280;22383;51.114;13.666;2024-01-07T00:07:31;66914.63;;;-2.57;100.00
36354;BME280;22383;51.114;13.666;2024-01-07T00:09:58;66904.53;;;-2.67;100.00
36354;BME280;22383;51.114;13.666;2024-01-07T00:12:25;66909.59;;;-2.62;100.00
36354;BME280;22383;51.114;13.666;2024-01-07T00:14:52;66914.63;;;-2.57;100.00
36354;BME280;22383;51.114;13.666;2024-01-07T00:17:19;66918.75;;;-2.51;100.00
36354;BME280;22383;51.114;13.666;2024-01-07T00:19:46;66914.28;;;-2.55;100.00
36354;BME280;22383;51.114;13.666;2024-01-07T00:22:13;66915.41;;;-2.54;100.00
36354;BME280;22383;51.114;13.666;2024-01-07T00:24:40;66913.16;;;-2.56;100.00
36354;BME280;22383;51.114;13.666;2024-01-07T00:27:07;66901.63;;;-2.64;100.00
36354;BME280;22383;51.114;13.666;2024-01-07T00:29:36;66915.00;;;-2.59;100.00
36354;BME280;22383;51.114;13.666;2024-01-07T00:32:04;66915.19;;;-2.57;100.00
36354;BME280;22383;51.114;13.666;2024-01-07T00:34:31;66912.41;;;-2.59;100.00
36354;BME280;22383;51.114;13.666;2024-01-07T00:36:59;66904.97;;;-2.61;100.00
36354;BME280;22383;51.114;13.666;2024-01-07T00:39:26;66896.69;;;-2.74;100.00
36354;BME280;22383;51.114;13.666;2024-01-07T00:41:53;66900.97;;;-2.72;100.00
36354;BME280;22383;51.114;13.666;2024-01-07T00:44:20;66894.66;;;-2.73;100.00
36354;BME280;22383;51.114;13.666;2024-01-07T00:46:47;66906.78;;;-2.64;100.00
36354;BME280;22383;51.114;13.666;2024-01-07T00:49:15;66898.94;;;-2.72;100.00
36354;BME280;22383;51.114;13.666;2024-01-07T00:51:42;66892.75;;;-2.77;100.00
36354;BME280;22383;51.114;13.666;2024-01-07T00:54:09;66907.13;;;-2.67;100.00
36354;BME280;22383;51.114;13.666;2024-01-07T00:56:36;66903.44;;;-2.68;100.00
36354;BME280;22383;51.114;13.666;2024-01-07T00:59:03;66900.84;;;-2.68;100.00
36354;BME280;22383;51.114;13.666;2024-01-07T01:01:30;66905.66;;;-2.66;100.00
36354;BME280;22383;51.114;13.666;2024-01-07T01:03:58;66904.53;;;-2.67;100.00
36354;BME280;22383;51.114;13.666;2024-01-07T01:06:25;66896.69;;;-2.74;100.00
36354;BME280;22383;51.114;13.666;2024-01-07T01:08:52;66904.88;;;-2.69;100.00
36354;BME280;22383;51.114;13.666;2024-01-07T01:11:19;66906.56;;;-2.67;100.00
36354;BME280;22383;51.114;13.666;2024-01-07T01:13:47;66898.59;;;-2.70;100.00
36354;BME280;22383;51.114;13.666;2024-01-07T01:16:14;66913.31;;;-2.61;100.00
36354;BME280;22383;51.114;13.666;2024-01-07T01:18:41;66908.13;;;-2.61;100.00
36354;BME280;22383;51.114;13.666;2024-01-07T01:21:09;66909.81;;;-2.59;100.00
36354;BME280;22383;51.114;13.666;2024-01-07T01:23:36;66903.63;;;-2.65;100.00
36354;BME280;22383;51.114;13.666;2024-01-07T01:26:03;66917.78;;;-2.57;100.00
36354;BME280;22383;51.114;13.666;2024-01-07T01:28:30;66900.06;;;-2.71;100.00
36354;BME280;22383;51.114;13.666;2024-01-07T01:30:57;66906.00;;;-2.68;100.00
36354;BME280;22383;51.114;13.666;2024-01-07T01:33:24;66887.72;;;-2.82;100.00
36354;BME280;22383;51.114;13.666;2024-01-07T01:35:51;66890.88;;;-2.81;100.00
36354;BME280;22383;51.114;13.666;2024-01-07T01:38:18;66890.88;;;-2.81;100.00
36354;BME280;22383;51.114;13.666;2024-01-07T01:40:52;66890.88;;;-2.81;100.00
36354;BME280;22383;51.114;13.666;2024-01-07T01:43:27;66882.69;;;-2.87;100.00
36354;BME280;22383;51.114;13.666;2024-01-07T01:45:55;66880.66;;;-2.86;100.00
36354;BME280;22383;51.114;13.666;2024-01-07T01:48:22;66886.59;;;-2.83;100.00
36354;BME280;22383;51.114;13.666;2024-01-07T01:50:50;66874.28;;;-2.94;100.00
36354;BME280;22383;51.114;13.666;2024-01-07T01:53:17;66879.88;;;-2.89;100.00
36354;BME280;22383;51.114;13.666;2024-01-07T01:55:44;66882.69;;;-2.87;100.00
36354;BME280;22383;51.114;13.666;2024-01-07T01:58:12;66879.66;;;-2.92;100.00
36354;BME280;22383;51.114;13.666;2024-01-07T02:00:40;66881.56;;;-2.88;100.00
36354;BME280;22383;51.114;13.666;2024-01-07T02:03:07;66878.75;;;-2.90;100.00
36354;BME280;22383;51.114;13.666;2024-01-07T02:05:34;66883.22;;;-2.86;100.00
36354;BME280;22383;51.114;13.666;2024-01-07T02:08:01;66880.09;;;-2.87;100.00
36354;BME280;22383;51.114;13.666;2024-01-07T02:10:28;66871.69;;;-2.94;100.00
36354;BME280;22383;51.114;13.666;2024-01-07T02:13:01;66874.59;;;-2.96;100.00
36354;BME280;22383;51.114;13.666;2024-01-07T02:15:29;66873.69;;;-2.95;100.00
36354;BME280;22383;51.114;13.666;2024-01-07T02:17:56;66881.00;;;-2.88;100.00
36354;BME280;22383;51.114;13.666;2024-01-07T02:20:23;66874.06;;;-2.97;100.00
36354;BME280;22383;51.114;13.666;2024-01-07T02:22:50;66869.22;;;-2.99;100.00
36354;BME280;22383;51.114;13.666;2024-01-07T02:25:18;66872.38;;;-2.98;100.00
36354;BME280;22383;51.114;13.666;2024-01-07T02:27:45;66867.34;;;-3.03;100.00
36354;BME280;22383;51.114;13.666;2024-01-07T02:30:12;66856.56;;;-3.08;100.00
36354;BME280;22383;51.114;13.666;2024-01-07T02:32:39;66860.25;;;-3.07;100.00
36354;BME280;22383;51.114;13.666;2024-01-07T02:35:06;66861.38;;;-3.06;100.00
36354;BME280;22383;51.114;13.666;2024-01-07T02:37:34;66861.38;;;-3.06;100.00
36354;BME280;22383;51.114;13.666;2024-01-07T02:40:01;66857.47;;;-3.10;100.00
36354;BME280;22383;51.114;13.666;2024-01-07T02:42:29;66855.44;;;-3.09;100.00
36354;BME280;22383;51.114;13.666;2024-01-07T02:44:57;66857.47;;;-3.10;100.00
36354;BME280;22383;51.114;13.666;2024-01-07T02:47:24;66851.63;;;-3.17;100.00
36354;BME280;22383;51.114;13.666;2024-01-07T02:49:51;66857.13;;;-3.08;100.00
36354;BME280;22383;51.114;13.666;2024-01-07T02:52:18;66852.75;;;-3.16;100.00
36354;BME280;22383;51.114;13.666;2024-01-07T02:54:45;66853.88;;;-3.15;100.00
36354;BME280;22383;51.114;13.666;2024-01-07T02:57:12;66860.59;;;-3.09;100.00
36354;BME280;22383;51.114;13.666;2024-01-07T02:59:39;66862.50;;;-3.05;100.00
36354;BME280;22383;51.114;13.666;2024-01-07T03:02:06;66805.84;;;-3.14;100.00
36354;BME280;22383;51.114;13.666;2024-01-07T03:04:33;66852.41;;;-3.14;100.00
36354;BME280;22383;51.114;13.666;2024-01-07T03:07:00;66852.97;;;-3.14;100.00
36354;BME280;22383;51.114;13.666;2024-01-07T03:09:27;66850.72;;;-3.16;100.00
36354;BME280;22383;51.114;13.666;2024-01-07T03:11:54;66847.03;;;-3.17;100.00
36354;BME280;22383;51.114;13.666;2024-01-07T03:14:21;66845.13;;;-3.21;100.00
36354;BME280;22383;51.114;13.666;2024-01-07T03:16:50;66856.13;;;-3.13;100.00
36354;BME280;22383;51.114;13.666;2024-01-07T03:19:17;66856.91;;;-3.10;100.00
36354;BME280;22383;51.114;13.666;2024-01-07T03:21:44;66850.53;;;-3.18;100.00
36354;BME280;22383;51.114;13.666;2024-01-07T03:24:11;66850.16;;;-3.16;100.00
36354;BME280;22383;51.114;13.666;2024-01-07T03:26:38;66854.09;;;-3.13;100.00
36354;BME280;22383;51.114;13.666;2024-01-07T03:29:05;66852.22;;;-3.17;100.00
36354;BME280;22383;51.114;13.666;2024-01-07T03:31:32;66862.50;;;-3.05;100.00
36354;BME280;22383;51.114;13.666;2024-01-07T03:33:59;66863.84;;;-3.01;100.00
36354;BME280;22383;51.114;13.666;2024-01-07T03:36:27;66865.09;;;-3.05;100.00
36354;BME280;22383;51.114;13.666;2024-01-07T03:38:54;66861.72;;;-3.08;100.00
36354;BME280;22383;51.114;13.666;2024-01-07T03:41:21;66858.38;;;-3.11;100.00
36354;BME280;22383;51.114;13.666;2024-01-07T03:43:48;66858.56;;;-3.09;100.00
36354;BME280;22383;51.114;13.666;2024-01-07T03:46:16;66858.13;;;-3.14;100.00
36354;BME280;22383;51.114;13.666;2024-01-07T03:48:43;66855.00;;;-3.14;100.00
36354;BME280;22383;51.114;13.666;2024-01-07T03:51:11;66848.13;;;-3.16;100.00
36354;BME280;22383;51.114;13.666;2024-01-07T03:53:37;66853.88;;;-3.15;100.00
36354;BME280;22383;51.114;13.666;2024-01-07T03:56:05;66850.16;;;-3.16;100.00
36354;BME280;22383;51.114;13.666;2024-01-07T03:58:32;66853.31;;;-3.16;100.00
36354;BME280;22383;51.114;13.666;2024-01-07T04:00:59;66852.06;;;-3.12;100.00
36354;BME280;22383;51.114;13.666;2024-01-07T04:03:26;66848.38;;;-3.13;100.00
36354;BME280;22383;51.114;13.666;2024-01-07T04:05:53;66838.63;;;-3.25;100.00
36354;BME280;22383;51.114;13.666;2024-01-07T04:08:20;66846.25;;;-3.20;100.00
36354;BME280;22383;51.114;13.666;2024-01-07T04:10:47;66836.72;;;-3.29;100.00
36354;BME280;22383;51.114;13.666;2024-01-07T04:13:14;66843.22;;;-3.25;100.00
36354;BME280;22383;51.114;13.666;2024-01-07T04:15:41;66839.75;;;-3.24;100.00
36354;BME280;22383;51.114;13.666;2024-01-07T04:18:08;66826.72;;;-3.31;100.00
36354;BME280;22383;51.114;13.666;2024-01-07T04:20:35;66844.91;;;-3.24;100.00
36354;BME280;22383;51.114;13.666;2024-01-07T04:23:02;66843.78;;;-3.25;100.00
36354;BME280;22383;51.114;13.666;2024-01-07T04:25:29;66839.31;;;-3.29;100.00
36354;BME280;22383;51.114;13.666;2024-01-07T04:27:56;66842.09;;;-3.26;100.00
36354;BME280;22383;51.114;13.666;2024-01-07T04:30:24;66831.13;;;-3.34;100.00
36354;BME280;22383;51.114;13.666;2024-01-07T04:32:51;66835.94;;;-3.32;100.00
36354;BME280;22383;51.114;13.666;2024-01-07T04:35:18;66836.72;;;-3.29;100.00
36354;BME280;22383;51.114;13.666;2024-01-07T04:37:45;66845.13;;;-3.21;100.00
36354;BME280;22383;51.114;13.666;2024-01-07T04:40:12;66836.16;;;-3.29;100.00
36354;BME280;22383;51.114;13.666;2024-01-07T04:42:39;66839.53;;;-3.26;100.00
36354;BME280;22383;51.114;13.666;2024-01-07T04:45:06;66832.47;;;-3.30;100.00
36354;BME280;22383;51.114;13.666;2024-01-07T04:47:34;66829.31;;;-3.31;100.00
36354;BME280;22383;51.114;13.666;2024-01-07T04:50:01;66830.56;;;-3.34;100.00
36354;BME280;22383;51.114;13.666;2024-01-07T04:52:29;66826.66;;;-3.38;100.00
36354;BME280;22383;51.114;13.666;2024-01-07T04:54:56;66830.34;;;-3.37;100.00
36354;BME280;22383;51.114;13.666;2024-01-07T04:57:23;66819.56;;;-3.42;100.00
36354;BME280;22383;51.114;13.666;2024-01-07T04:59:51;66828.88;;;-3.36;100.00
36354;BME280;22383;51.114;13.666;2024-01-07T05:02:19;66819.91;;;-3.44;100.00
36354;BME280;22383;51.114;13.666;2024-01-07T05:04:46;66831.81;;;-3.38;100.00
36354;BME280;22383;51.114;13.666;2024-01-07T05:07:13;66828.09;;;-3.39;100.00
36354;BME280;22383;51.114;13.666;2024-01-07T05:09:40;66830.91;;;-3.36;100.00
36354;BME280;22383;51.114;13.666;2024-01-07T05:12:08;66832.81;;;-3.32;100.00
36354;BME280;22383;51.114;13.666;2024-01-07T05:14:35;66825.75;;;-3.36;100.00
36354;BME280;22383;51.114;13.666;2024-01-07T05:17:03;66831.13;;;-3.34;100.00
36354;BME280;22383;51.114;13.666;2024-01-07T05:19:30;66825.53;;;-3.39;100.00
36354;BME280;22383;51.114;13.666;2024-01-07T05:21:58;66823.47;;;-3.38;100.00
36354;BME280;22383;51.114;13.666;2024-01-07T05:24:25;66818.22;;;-3.46;100.00
36354;BME280;22383;51.114;13.666;2024-01-07T05:26:52;66815.22;;;-3.51;100.00
36354;BME280;22383;51.114;13.666;2024-01-07T05:29:19;66812.63;;;-3.51;100.00
36354;BME280;22383;51.114;13.666;2024-01-07T05:31:46;66806.47;;;-3.56;100.00
36354;BME280;22383;51.114;13.666;2024-01-07T05:34:13;66805.91;;;-3.57;100.00
36354;BME280;22383;51.114;13.666;2024-01-07T05:36:40;66813.75;;;-3.50;100.00
36354;BME280;22383;51.114;13.666;2024-01-07T05:39:07;66806.69;;;-3.54;100.00
36354;BME280;22383;51.114;13.666;2024-01-07T05:41:36;66809.59;;;-3.56;100.00
36354;BME280;22383;51.114;13.666;2024-01-07T05:44:03;66808.38;;;-3.52;100.00
36354;BME280;22383;51.114;13.666;2024-01-07T05:46:30;66812.84;;;-3.48;100.00
36354;BME280;22383;51.114;13.666;2024-01-07T05:48:57;66812.31;;;-3.49;100.00
36354;BME280;22383;51.114;13.666;2024-01-07T05:51:24;66812.63;;;-3.51;100.00
36354;BME280;22383;51.114;13.666;2024-01-07T05:53:52;66800.53;;;-3.59;100.00
36354;BME280;22383;51.114;13.666;2024-01-07T05:56:19;66792.69;;;-3.67;100.00
36354;BME280;22383;51.114;13.666;2024-01-07T05:58:46;66811.28;;;-3.54;100.00
36354;BME280;22383;51.114;13.666;2024-01-07T06:01:17;66792.13;;;-3.67;100.00
36354;BME280;22383;51.114;13.666;2024-01-07T06:03:46;66792.47;;;-3.69;100.00
36354;BME280;22383;51.114;13.666;2024-01-07T06:06:13;66787.78;;;-3.76;100.00
36354;BME280;22383;51.114;13.666;2024-01-07T06:12:07;66783.84;;;-3.80;100.00
36354;BME280;22383;51.114;13.666;2024-01-07T06:14:34;66768.38;;;-3.91;100.00
36354;BME280;22383;51.114;13.666;2024-01-07T06:17:01;66774.78;;;-3.83;100.00
36354;BME280;22383;51.114;13.666;2024-01-07T06:19:29;66768.97;;;-3.91;100.00
36354;BME280;22383;51.114;13.666;2024-01-07T06:21:56;66766.94;;;-3.90;100.00
36354;BME280;22383;51.114;13.666;2024-01-07T06:24:23;66765.38;;;-3.96;100.00
36354;BME280;22383;51.114;13.666;2024-01-07T06:26:50;66767.84;;;-3.92;100.00
36354;BME280;22383;51.114;13.666;2024-01-07T06:29:17;66760.19;;;-3.96;100.00
36354;BME280;22383;51.114;13.666;2024-01-07T06:31:45;66767.94;;;-3.96;100.00
36354;BME280;22383;51.114;13.666;2024-01-07T06:34:12;66762.78;;;-3.96;100.00
36354;BME280;22383;51.114;13.666;2024-01-07T06:36:41;66760.91;;;-4.01;100.00
36354;BME280;22383;51.114;13.666;2024-01-07T06:39:10;66766.38;;;-3.91;100.00
36354;BME280;22383;51.114;13.666;2024-01-07T06:41:37;66711.03;;;-4.04;100.00
36354;BME280;22383;51.114;13.666;2024-01-07T06:44:04;66760.00;;;-3.99;100.00
36354;BME280;22383;51.114;13.666;2024-01-07T06:46:31;66767.63;;;-3.94;100.00
36354;BME280;22383;51.114;13.666;2024-01-07T06:49:00;66763.91;;;-3.95;100.00
36354;BME280;22383;51.114;13.666;2024-01-07T06:51:28;66767.28;;;-3.92;100.00
36354;BME280;22383;51.114;13.666;2024-01-07T06:53:55;66763.91;;;-3.95;100.00
36354;BME280;22383;51.114;13.666;2024-01-07T06:56:22;66755.72;;;-4.01;100.00
36354;BME280;22383;51.114;13.666;2024-01-07T06:58:51;66759.44;;;-4.00;100.00
36354;BME280;22383;51.114;13.666;2024-01-07T07:01:21;66763.13;;;-3.99;100.00
36354;BME280;22383;51.114;13.666;2024-01-07T07:03:50;66751.03;;;-4.07;100.00
36354;BME280;22383;51.114;13.666;2024-01-07T07:06:17;66752.16;;;-4.06;100.00
36354;BME280;22383;51.114;13.666;2024-01-07T07:08:44;66765.38;;;-3.96;100.00
36354;BME280;22383;51.114;13.666;2024-01-07T07:11:11;66718.53;;;-3.94;100.00
36354;BME280;22383;51.114;13.666;2024-01-07T07:13:38;66757.97;;;-3.99;100.00
36354;BME280;22383;51.114;13.666;2024-01-07T07:16:05;66755.72;;;-4.01;100.00
36354;BME280;22383;51.114;13.666;2024-01-07T07:18:32;66756.84;;;-4.00;100.00
36354;BME280;22383;51.114;13.666;2024-01-07T07:21:00;66763.13;;;-3.99;100.00
36354;BME280;22383;51.114;13.666;2024-01-07T07:23:27;66758.31;;;-4.01;100.00
36354;BME280;22383;51.114;13.666;2024-01-07T07:25:54;66754.41;;;-4.04;100.00
36354;BME280;22383;51.114;13.666;2024-01-07T07:28:21;66760.34;;;-4.01;100.00
36354;BME280;22383;51.114;13.666;2024-01-07T07:30:48;66749.91;;;-4.08;100.00
36354;BME280;22383;51.114;13.666;2024-01-07T07:33:18;66754.41;;;-4.04;100.00
36354;BME280;22383;51.114;13.666;2024-01-07T07:35:45;66756.28;;;-4.00;100.00
36354;BME280;22383;51.114;13.666;2024-01-07T07:38:12;66763.34;;;-3.96;100.00
36354;BME280;22383;51.114;13.666;2024-01-07T07:40:40;66773.97;;;-3.86;100.00
36354;BME280;22383;51.114;13.666;2024-01-07T07:43:07;66763.00;;;-3.94;100.00
36354;BME280;22383;51.114;13.666;2024-01-07T07:45:34;66759.22;;;-4.02;100.00
36354;BME280;22383;51.114;13.666;2024-01-07T07:48:01;66749.69;;;-4.11;100.00
36354;BME280;22383;51.114;13.666;2024-01-07T07:50:28;66754.16;;;-4.07;100.00
36354;BME280;22383;51.114;13.666;2024-01-07T07:52:55;66757.53;;;-4.04;100.00
36354;BME280;22383;51.114;13.666;2024-01-07T07:55:22;66753.50;;;-4.03;100.00
36354;BME280;22383;51.114;13.666;2024-01-07T07:57:49;66759.44;;;-4.00;100.00
36354;BME280;22383;51.114;13.666;2024-01-07T08:00:18;66753.84;;;-4.05;100.00
36354;BME280;22383;51.114;13.666;2024-01-07T08:02:45;66747.13;;;-4.11;100.00
36354;BME280;22383;51.114;13.666;2024-01-07T08:05:13;66748.25;;;-4.10;100.00
36354;BME280;22383;51.114;13.666;2024-01-07T08:07:41;66734.47;;;-4.20;100.00
36354;BME280;22383;51.114;13.666;2024-01-07T08:10:08;66725.28;;;-4.31;100.00
36354;BME280;22383;51.114;13.666;2024-01-07T08:12:36;66737.59;;;-4.20;100.00
36354;BME280;22383;51.114;13.666;2024-01-07T08:15:03;66739.28;;;-4.18;100.00
36354;BME280;22383;51.114;13.666;2024-01-07T08:17:31;66731.22;;;-4.28;100.00
36354;BME280;22383;51.114;13.666;2024-01-07T08:19:58;66727.88;;;-4.31;100.00
36354;BME280;22383;51.114;13.666;2024-01-07T08:22:26;66722.47;;;-4.33;100.00
36354;BME280;22383;51.114;13.666;2024-01-07T08:24:53;66717.22;;;-4.41;100.00
36354;BME280;22383;51.114;13.666;2024-01-07T08:27:21;66718.44;;;-4.32;100.00
36354;BME280;22383;51.114;13.666;2024-01-07T08:29:48;66723.81;;;-4.30;100.00
36354;BME280;22383;51.114;13.666;2024-01-07T08:32:15;66723.59;;;-4.32;100.00
36354;BME280;22383;51.114;13.666;2024-01-07T08:34:42;66724.94;;;-4.29;100.00
36354;BME280;22383;51.114;13.666;2024-01-07T08:37:09;66731.78;;;-4.27;100.00
36354;BME280;22383;51.114;13.666;2024-01-07T08:39:36;66723.81;;;-4.30;100.00
36354;BME280;22383;51.114;13.666;2024-01-07T08:42:04;66678.56;;;-4.33;100.00
36354;BME280;22383;51.114;13.666;2024-01-07T08:44:31;66728.63;;;-4.28;100.00
36354;BME280;22383;51.114;13.666;2024-01-07T08:46:58;66724.50;;;-4.34;100.00
36354;BME280;22383;51.114;13.666;2024-01-07T08:49:28;66731.22;;;-4.28;100.00
36354;BME280;22383;51.114;13.666;2024-01-07T08:51:55;66726.97;;;-4.29;100.00
36354;BME280;22383;51.114;13.666;2024-01-07T08:54:23;66738.50;;;-4.21;100.00
36354;BME280;22383;51.114;13.666;2024-01-07T08:56:50;66684.94;;;-4.25;100.00
36354;BME280;22383;51.114;13.666;2024-01-07T08:59:17;66741.31;;;-4.19;100.00
36354;BME280;22383;51.114;13.666;2024-01-07T09:01:44;66740.19;;;-4.20;100.00
36354;BME280;22383;51.114;13.666;2024-01-07T09:04:11;66741.06;;;-4.21;100.00
36354;BME280;22383;51.114;13.666;2024-01-07T09:06:38;66739.47;;;-4.15;100.00
36354;BME280;22383;51.114;13.666;2024-01-07T09:09:05;66748.59;;;-4.12;100.00
36354;BME280;22383;51.114;13.666;2024-01-07T09:11:35;66738.38;;;-4.16;100.00
36354;BME280;22383;51.114;13.666;2024-01-07T09:14:03;66760.53;;;-3.99;100.00
36354;BME280;22383;51.114;13.666;2024-01-07T09:16:30;66752.38;;;-4.04;100.00
36354;BME280;22383;51.114;13.666;2024-01-07T09:18:57;66761.69;;;-3.97;100.00
36354;BME280;22383;51.114;13.666;2024-01-07T09:21:24;66769.88;;;-3.92;100.00
36354;BME280;22383;51.114;13.666;2024-01-07T09:23:51;66759.75;;;-4.02;100.00
36354;BME280;22383;51.114;13.666;2024-01-07T09:26:18;66770.28;;;-3.87;100.00
36354;BME280;22383;51.114;13.666;2024-01-07T09:28:45;66770.84;;;-3.87;100.00
36354;BME280;22383;51.114;13.666;2024-01-07T09:31:11;66779.59;;;-3.81;100.00
36354;BME280;22383;51.114;13.666;2024-01-07T09:33:39;66789.47;;;-3.74;100.00
36354;BME280;22383;51.114;13.666;2024-01-07T09:36:07;66783.84;;;-3.80;100.00
36354;BME280;22383;51.114;13.666;2024-01-07T09:38:51;66769.72;;;-3.88;100.00
36354;BME280;22383;51.114;13.666;2024-01-07T09:41:20;66778.47;;;-3.82;100.00
36354;BME280;22383;51.114;13.666;2024-01-07T09:43:47;66777.13;;;-3.86;100.00
36354;BME280;22383;51.114;13.666;2024-01-07T09:46:14;66776.56;;;-3.86;100.00
36354;BME280;22383;51.114;13.666;2024-01-07T09:48:41;66782.72;;;-3.81;100.00
36354;BME280;22383;51.114;13.666;2024-01-07T09:51:10;66774.22;;;-3.84;100.00
36354;BME280;22383;51.114;13.666;2024-01-07T09:53:38;66768.03;;;-3.89;100.00
36354;BME280;22383;51.114;13.666;2024-01-07T09:56:25;66762.78;;;-3.96;100.00
36354;BME280;22383;51.114;13.666;2024-01-07T09:58:52;66765.94;;;-3.96;100.00
36354;BME280;22383;51.114;13.666;2024-01-07T10:01:19;66759.75;;;-4.02;100.00
36354;BME280;22383;51.114;13.666;2024-01-07T10:03:46;66759.44;;;-4.00;100.00
36354;BME280;22383;51.114;13.666;2024-01-07T10:06:17;66773.22;;;-3.89;100.00
36354;BME280;22383;51.114;13.666;2024-01-07T10:08:44;66758.88;;;-4.00;100.00
36354;BME280;22383;51.114;13.666;2024-01-07T10:11:13;66754.94;;;-4.04;100.00
36354;BME280;22383;51.114;13.666;2024-01-07T10:13:40;66740.72;;;-4.19;100.00
36354;BME280;22383;51.114;13.666;2024-01-07T10:16:07;66744.31;;;-4.13;100.00
36354;BME280;22383;51.114;13.666;2024-01-07T10:18:34;66744.44;;;-4.18;100.00
36354;BME280;22383;51.114;13.666;2024-01-07T10:21:02;66726.41;;;-4.30;100.00
36354;BME280;22383;51.114;13.666;2024-01-07T10:23:30;66734.56;;;-4.25;100.00
36354;BME280;22383;51.114;13.666;2024-01-07T10:25:57;66741.31;;;-4.19;100.00
36354;BME280;22383;51.114;13.666;2024-01-07T10:28:29;66730.88;;;-4.26;100.00
36354;BME280;22383;51.114;13.666;2024-01-07T10:30:55;66739.63;;;-4.20;100.00
36354;BME280;22383;51.114;13.666;2024-01-07T10:33:23;66742.41;;;-4.18;100.00
36354;BME280;22383;51.114;13.666;2024-01-07T10:36:01;66725.84;;;-4.30;100.00
36354;BME280;22383;51.114;13.666;2024-01-07T10:38:31;66724.50;;;-4.34;100.00
36354;BME280;22383;51.114;13.666;2024-01-07T10:40:58;66714.09;;;-4.41;100.00
36354;BME280;22383;51.114;13.666;2024-01-07T10:43:26;66694.16;;;-4.57;100.00
36354;BME280;22383;51.114;13.666;2024-01-07T10:45:55;66693.72;;;-4.62;100.00
36354;BME280;22383;51.114;13.666;2024-01-07T10:48:27;66698.41;;;-4.56;100.00
36354;BME280;22383;51.114;13.666;2024-01-07T10:50:59;66703.88;;;-4.46;100.00
36354;BME280;22383;51.114;13.666;2024-01-07T10:53:26;66726.97;;;-4.29;100.00
36354;BME280;22383;51.114;13.666;2024-01-07T10:55:56;66722.47;;;-4.33;100.00
36354;BME280;22383;51.114;13.666;2024-01-07T10:58:26;66716.53;;;-4.37;100.00
36354;BME280;22383;51.114;13.666;2024-01-07T11:00:54;66721.13;;;-4.37;100.00
36354;BME280;22383;51.114;13.666;2024-01-07T11:03:27;66703.66;;;-4.48;100.00
36354;BME280;22383;51.114;13.666;2024-01-07T11:05:59;66718.91;;;-4.39;100.00
36354;BME280;22383;51.114;13.666;2024-01-07T11:11:12;66714.44;;;-4.43;100.00
36354;BME280;22383;51.114;13.666;2024-01-07T11:13:41;66725.28;;;-4.31;100.00
36354;BME280;22383;51.114;13.666;2024-01-07T11:16:09;66681.94;;;-4.30;100.00
36354;BME280;22383;51.114;13.666;2024-01-07T11:18:46;66678.56;;;-4.33;100.00
36354;BME280;22383;51.114;13.666;2024-01-07T11:21:22;66719.34;;;-4.34;100.00
36354;BME280;22383;51.114;13.666;2024-01-07T11:23:51;66725.28;;;-4.31;100.00
36354;BME280;22383;51.114;13.666;2024-01-07T11:26:20;66732.56;;;-4.24;100.00
36354;BME280;22383;51.114;13.666;2024-01-07T11:28:48;66733.31;;;-4.21;100.00
36354;BME280;22383;51.114;13.666;2024-01-07T11:31:17;66728.06;;;-4.28;100.00
36354;BME280;22383;51.114;13.666;2024-01-07T11:33:45;66722.47;;;-4.33;100.00
36354;BME280;22383;51.114;13.666;2024-01-07T11:36:13;66714.63;;;-4.41;100.00
36354;BME280;22383;51.114;13.666;2024-01-07T11:38:42;66706.03;;;-4.51;100.00
36354;BME280;22383;51.114;13.666;2024-01-07T11:41:11;66715.19;;;-4.40;100.00
36354;BME280;22383;51.114;13.666;2024-01-07T11:43:44;66694.28;;;-4.62;100.00
36354;BME280;22383;51.114;13.666;2024-01-07T11:46:18;66691.69;;;-4.62;100.00
36354;BME280;22383;51.114;13.666;2024-01-07T11:48:45;66701.22;;;-4.53;100.00
36354;BME280;22383;51.114;13.666;2024-01-07T11:51:13;66704.91;;;-4.52;100.00
36354;BME280;22383;51.114;13.666;2024-01-07T11:53:40;66712.19;;;-4.45;100.00
36354;BME280;22383;51.114;13.666;2024-01-07T11:56:08;66707.16;;;-4.50;100.00
36354;BME280;22383;51.114;13.666;2024-01-07T11:58:35;66704.03;;;-4.50;100.00
36354;BME280;22383;51.114;13.666;2024-01-07T12:01:02;66724.16;;;-4.32;100.00
36354;BME280;22383;51.114;13.666;2024-01-07T12:03:30;66685.84;;;-4.27;100.00
36354;BME280;22383;51.114;13.666;2024-01-07T12:05:57;66733.47;;;-4.26;100.00
36354;BME280;22383;51.114;13.666;2024-01-07T12:08:24;66746.00;;;-4.12;100.00
36354;BME280;22383;51.114;13.666;2024-01-07T12:10:52;66750.25;;;-4.10;100.00
36354;BME280;22383;51.114;13.666;2024-01-07T12:13:18;66746.31;;;-4.14;100.00
36354;BME280;22383;51.114;13.666;2024-01-07T12:15:46;66748.59;;;-4.12;100.00
36354;BME280;22383;51.114;13.666;2024-01-07T12:18:13;66752.94;;;-4.03;100.00
36354;BME280;22383;51.114;13.666;2024-01-07T12:20:42;66760.19;;;-3.96;100.00
36354;BME280;22383;51.114;13.666;2024-01-07T12:23:09;66768.38;;;-3.91;100.00
36354;BME280;22383;51.114;13.666;2024-01-07T12:25:37;66761.09;;;-3.98;100.00
36354;BME280;22383;51.114;13.666;2024-01-07T12:28:06;66746.56;;;-4.11;100.00
36354;BME280;22383;51.114;13.666;2024-01-07T12:30:33;66759.00;;;-4.05;100.00
36354;BME280;22383;51.114;13.666;2024-01-07T12:33:01;66749.34;;;-4.09;100.00
36354;BME280;22383;51.114;13.666;2024-01-07T12:35:31;66731.22;;;-4.28;100.00
36354;BME280;22383;51.114;13.666;2024-01-07T12:37:59;66677.13;;;-4.32;100.00
36354;BME280;22383;51.114;13.666;2024-01-07T12:40:26;66720.59;;;-4.38;100.00
36354;BME280;22383;51.114;13.666;2024-01-07T12:42:54;66715.19;;;-4.40;100.00
36354;BME280;22383;51.114;13.666;2024-01-07T12:45:21;66726.19;;;-4.32;100.00
36354;BME280;22383;51.114;13.666;2024-01-07T12:47:48;66726.75;;;-4.32;100.00